WEATHER DATA

YESTERDAY
Time Temp. Dewp. Hum. Wind dir Wind speed Wind gust Bar. 1h Prec. 24h Prec.
00:04 -1.3 -4.9 74 138 0.3 0.8 1018.8 0.0000 0.0000
00:14 -1.4 -5 74 138 0.6 1.1 1018.6 0.0000 0.0000
00:25 -1.4 -5 74 139 0.3 1.1 1018.8 0.0000 0.0000
00:34 -1.4 -5 74 138 0.3 1.1 1018.8 0.0000 0.0000
00:44 -1.4 -5 74 135 0.3 0.8 1019 0.0000 0.0000
00:55 -1.5 -5.1 74 142 0.3 1.1 1018.9 0.0000 0.0000
01:05 -1.5 -5.1 74 135 0.3 1.1 1018.9 0.0000 0.0000
01:15 -1.6 -5.3 73 135 0.3 1.1 1018.9 0.0000 0.0000
01:25 -1.7 -5.4 73 147 0.3 1.1 1018.9 0.0000 0.0000
01:35 -1.8 -5.5 73 142 0.3 1.1 1018.9 0.0000 0.0000
01:45 -1.9 -5.6 73 142 0.3 0.8 1018.9 0.0000 0.0000
01:55 -1.9 -5.6 73 135 0.3 0.8 1018.9 0.0000 0.0000
02:05 -2 -5.7 73 138 0.3 1.1 1019 0.0000 0.0000
02:15 -2.2 -5.9 73 135 0.3 0.8 1018.9 0.0000 0.0000
02:25 -2.4 -6.1 73 138 0.6 1.1 1018.8 0.0000 0.0000
02:35 -2.7 -6.4 73 152 0.3 0.8 1019 0.0000 0.0000
02:45 -3 -6.7 73 135 0.6 0.8 1018.9 0.0000 0.0000
02:55 -3.2 -6.9 73 138 0.3 0.8 1019 0.0000 0.0000
03:05 -3.5 -7.2 73 135 0.3 1.1 1018.9 0.0000 0.0000
03:16 -3.8 -7.5 73 138 0.6 1.1 1019 0.0000 0.0000
03:25 -4 -7.7 73 138 0.6 1.1 1018.9 0.0000 0.0000
03:35 -4.1 -7.6 74 141 0.6 1.1 1018.9 0.0000 0.0000
03:45 -4.3 -7.8 74 135 0.6 1.1 1019 0.0000 0.0000
03:56 -4.4 -7.9 74 142 0.3 1.1 1019.1 0.0000 0.0000
04:05 -4.5 -8 74 135 0.6 1.1 1019 0.0000 0.0000
04:15 -4.6 -8.1 74 135 0.6 0.8 1019.2 0.0000 0.0000
04:26 -4.7 -8 75 138 0.3 1.1 1019.3 0.0000 0.0000
04:35 -4.8 -8.1 75 152 0.3 0.8 1019.2 0.0000 0.0000
04:45 -5 -8.3 75 142 0.3 1.1 1019.4 0.0000 0.0000
04:56 -5.1 -8.4 75 150 0.3 1.4 1019.3 0.0000 0.0000
05:06 -5.2 -8.5 75 139 0.3 1.1 1019.3 0.0000 0.0000
05:15 -5.3 -8.6 75 144 0.3 0.8 1019.3 0.0000 0.0000
05:25 -5.4 -8.6 76 135 0.6 1.4 1019.3 0.0000 0.0000
05:36 -5.4 -8.6 76 135 0.6 1.1 1019.2 0.0000 0.0000
05:46 -5.5 -8.7 76 138 0.6 1.1 1019.3 0.0000 0.0000
05:55 -5.6 -8.8 76 135 0.6 1.1 1019.3 0.0000 0.0000
06:06 -5.7 -8.9 76 145 0.6 1.1 1019.3 0.0000 0.0000
06:16 -5.9 -9.1 76 143 0.6 1.1 1019.4 0.0000 0.0000
06:26 -6 -9.1 76 141 0.6 1.1 1019.4 0.0000 0.0000
06:36 -6 -9 77 142 0.6 0.8 1019.4 0.0000 0.0000
06:46 -6.1 -9.1 77 145 0.6 0.8 1019.5 0.0000 0.0000
06:56 -6.2 -9.2 77 148 0.6 1.1 1019.4 0.0000 0.0000
07:06 -6.2 -9.2 77 143 0.3 1.1 1019.6 0.0000 0.0000
07:16 -6.1 -9.1 77 135 0.6 0.8 1019.7 0.0000 0.0000
07:26 -6.1 -9.1 77 138 0.3 1.1 1019.7 0.0000 0.0000
07:36 -6 -9 77 156 0.3 1.1 1019.9 0.0000 0.0000
07:46 -5.8 -8.8 77 145 0.6 1.1 1019.8 0.0000 0.0000
07:56 -5.7 -8.7 77 157 0.3 1.1 1019.8 0.0000 0.0000
08:06 -5.5 -8.5 77 145 0.6 1.1 1019.9 0.0000 0.0000
08:16 -5.3 -8.3 77 138 0.6 1.4 1019.8 0.0000 0.0000
08:27 -5 -8 77 135 0.3 0.8 1019.7 0.0000 0.0000
08:36 -4.7 -7.7 77 145 0.3 0.8 1019.8 0.0000 0.0000
08:46 -4.3 -7.3 77 135 0.6 1.1 1020 0.0000 0.0000
08:57 -4 -7 77 135 0.6 1.1 1020.1 0.0000 0.0000
09:07 -3.7 -6.9 76 138 0.6 0.8 1020.1 0.0000 0.0000
09:16 -3.4 -6.6 76 153 0.3 1.1 1020.1 0.0000 0.0000
09:26 -3.1 -6.5 75 148 0.6 1.1 1020.1 0.0000 0.0000
09:37 -2.9 -6.3 75 135 0.3 1.1 1020.1 0.0000 0.0000
09:47 -2.7 -6.2 74 135 0.3 0.8 1019.9 0.0000 0.0000
09:56 -2.4 -5.9 74 138 0.3 1.1 1019.8 0.0000 0.0000
10:07 -2.2 -5.9 73 142 0.3 1.1 1019.9 0.0000 0.0000
10:17 -1.9 -5.6 73 135 0.3 1.1 1020 0.0000 0.0000
10:27 -1.6 -5.5 72 135 0.3 0.8 1019.9 0.0000 0.0000
10:37 -1.4 -5.3 72 138 0.3 1.1 1019.8 0.0000 0.0000
10:47 -1.1 -5.2 71 135 0.3 1.1 1019.9 0.0000 0.0000
10:57 -1.1 -5.3 70 135 0.3 0.8 1020.1 0.0000 0.0000
11:07 -1 -5.2 70 135 0.3 0.8 1020 0.0000 0.0000
11:18 -0.9 -5.1 70 135 0.3 0.8 1019.9 0.0000 0.0000
11:27 -0.8 -5.2 69 131 0.3 0.8 1019.8 0.0000 0.0000
11:37 -0.8 -5.2 69 127 0.3 0.8 1019.8 0.0000 0.0000
11:47 -0.7 -5.3 68 131 0.3 0.8 1019.7 0.0000 0.0000
12:08 -0.6 -5.2 68 135 0.3 0.8 1019.7 0.0000 0.0000
12:17 -0.6 -5.2 68 131 0.3 0.8 1019.7 0.0000 0.0000
12:28 -0.4 -5.2 67 127 0.3 0.8 1019.6 0.0000 0.0000
12:38 -0.4 -5.2 67 131 0.3 0.8 1019.5 0.0000 0.0000
12:48 -0.3 -5.1 67 128 0.3 0.8 1019.6 0.0000 0.0000
12:57 -0.4 -5.2 67 128 0.3 0.8 1019.5 0.0000 0.0000
13:08 -0.3 -5.1 67 128 0.3 0.8 1019.5 0.0000 0.0000
13:18 -0.1 -4.9 67 128 0.3 0.8 1019.3 0.0000 0.0000
13:28 0.4 -4.4 67 131 0.3 0.8 1019.2 0.0000 0.0000
13:39 0.8 -4.1 67 127 0.3 0.8 1019.2 0.0000 0.0000
13:48 0.8 -4.5 65 126 0.3 0.8 1019.2 0.0000 0.0000
13:58 0.7 -4.5 65 124 0.3 0.8 1019.2 0.0000 0.0000
14:08 0.8 -4.5 65 127 0.3 0.8 1019.2 0.0000 0.0000
14:19 0.8 -4.6 64 131 0.3 0.8 1019.2 0.0000 0.0000
14:28 1 -4.3 65 128 0.3 0.8 1019.2 0.0000 0.0000
14:38 1 -4.5 64 127 0.3 0.8 1019.1 0.0000 0.0000
14:49 1.2 -4.3 64 128 0.3 0.8 1019.1 0.0000 0.0000
14:59 1.1 -4.6 63 131 0.3 0.8 1019.1 0.0000 0.0000
15:09 1 -4.8 62 131 0.3 0.8 1019.1 0.0000 0.0000
15:18 0.8 -5 62 128 0.3 0.8 1019.2 0.0000 0.0000
15:29 0.7 -5.1 62 128 0.3 0.8 1019.3 0.0000 0.0000
15:39 0.6 -5.4 61 128 0.3 0.8 1019.4 0.0000 0.0000
15:49 0.4 -5.5 61 128 0.3 0.8 1019.5 0.0000 0.0000
15:59 0.3 -5.8 60 135 0.3 0.8 1019.5 0.0000 0.0000
16:09 0.3 -5.8 60 128 0.3 0.8 1019.6 0.0000 0.0000
16:19 0 -6.1 60 128 0.3 0.8 1019.8 0.0000 0.0000
16:29 -0.2 -6.3 60 131 0.6 0.8 1019.7 0.0000 0.0000
16:39 -0.3 -6.2 61 128 0.3 1.1 1019.8 0.0000 0.0000
16:49 -0.4 -6.3 61 125 0.3 1.1 1020.1 0.0000 0.0000
16:59 -0.6 -6.4 61 131 0.3 1.1 1020.2 0.0000 0.0000
17:10 -0.8 -6.6 61 128 0.3 1.1 1020.4 0.0000 0.0000
17:20 -1 -7 60 135 0.3 1.1 1020.5 0.0000 0.0000
17:29 -1.3 -7.3 60 128 0.6 1.1 1020.7 0.0000 0.0000
17:39 -1.4 -7.2 61 131 0.6 0.8 1020.8 0.0000 0.0000
17:50 -1.6 -7.4 61 131 0.3 0.8 1020.9 0.0000 0.0000
18:00 -1.8 -7.6 61 131 0.3 0.8 1020.9 0.0000 0.0000
18:09 -2 -7.8 61 127 0.3 0.8 1021.1 0.0000 0.0000
18:20 -2.2 -8 61 131 0.6 1.1 1021.3 0.0000 0.0000
18:30 -2.5 -8.3 61 135 0.3 1.1 1021.3 0.0000 0.0000
18:40 -2.6 -8.2 62 138 0.3 1.1 1021.4 0.0000 0.0000
18:50 -2.7 -8.3 62 138 0.3 0.8 1021.5 0.0000 0.0000
19:00 -2.7 -8.1 63 135 0.3 1.1 1021.5 0.0000 0.0000
19:10 -2.7 -8.1 63 131 0.6 1.1 1021.6 0.0000 0.0000
19:20 -2.7 -8.1 63 128 0.6 1.1 1021.7 0.0000 0.0000
19:30 -2.7 -8.1 63 131 0.3 1.1 1021.7 0.0000 0.0000
19:40 -2.7 -7.9 64 138 0.6 1.1 1022.1 0.0000 0.0000
19:50 -2.8 -8 64 142 0.3 0.8 1022.1 0.0000 0.0000
20:00 -3 -8 65 142 0.6 1.1 1022.2 0.0000 0.0000
20:10 -3.3 -8.3 65 146 0.3 1.4 1022.3 0.0000 0.0000
20:20 -3.5 -8.5 65 139 0.3 1.1 1022.4 0.0000 0.0000
20:30 -3.8 -8.8 65 146 0.3 1.1 1022.5 0.0000 0.0000
20:41 -4 -9 65 143 0.3 1.1 1022.6 0.0000 0.0000
20:50 -4.2 -9.2 65 153 0.3 1.1 1022.7 0.0000 0.0000
21:00 -4.3 -9.1 66 149 0.6 1.4 1022.7 0.0000 0.0000
21:11 -4.4 -9.2 66 149 0.3 0.8 1022.7 0.0000 0.0000
21:20 -4.5 -9.3 66 165 0.3 0.8 1022.5 0.0000 0.0000
21:30 -4.5 -9.1 67 149 0.6 1.4 1022.6 0.0000 0.0000
21:40 -4.5 -9.1 67 143 0.3 1.1 1022.7 0.0000 0.0000
21:51 -4.4 -8.9 68 141 0.6 1.4 1022.8 0.0000 0.0000
22:00 -4.4 -8.9 68 146 0.6 1.1 1023 0.0000 0.0000
22:10 -4.4 -8.9 68 139 0.6 1.1 1023 0.0000 0.0000
22:21 -4.4 -8.9 68 135 0.6 1.1 1023.1 0.0000 0.0000
22:31 -4.5 -8.8 69 159 0.6 1.1 1023.3 0.0000 0.0000
22:40 -4.7 -9.1 68 142 0.6 1.1 1023.3 0.0000 0.0000
22:50 -4.9 -9.5 67 145 0.6 1.4 1023.3 0.0000 0.0000
23:01 -5.1 -9.7 67 147 0.3 0.8 1023.2 0.0000 0.0000
23:10 -5.3 -9.9 67 143 0.3 1.1 1023.3 0.0000 0.0000
23:20 -5.5 -10.1 67 156 0.3 1.1 1023.3 0.0000 0.0000
23:31 -5.7 -10.3 67 152 0.6 1.1 1023.4 0.0000 0.0000
23:41 -5.8 -10.2 68 147 0.3 0.8 1023.4 0.0000 0.0000
23:50 -5.9 -10.3 68 149 0.6 1.1 1023.4 0.0000 0.0000

DAY STATISTICS

2018-02-24
TEMPERATURE
AVERAGE
-2.7
HIGH
1.2
14:49
LOW
-6.2
06:56
PRESSURE
AVERAGE
1020.2
HIGH
1023.4
23:31
LOW
1018.6
00:14
DEWPOINT
AVERAGE
-7.1
HIGH
-4.1
13:39
LOW
-10.3
23:31
HUMIDITY
AVERAGE
69
HIGH
77
06:36
LOW
60
15:59
WIND SPEED
AVERAGE
0.4
HIGH
0.6
00:14
WIND GUST
AVERAGE
1.0
HIGH
1.4
04:56
WIND DIRECTION
PREVAILING
SE
98.6%
N
0.0
NE
0.0
E
0.0
SE
98.6
S
1.4
SW
0.0
W
0.0
NW
0.0
PRECIPITATION
RAIN HOUR
0.0
RAIN DAY
0.0
TEMPERATURE (°C)
LOW
-6.2
HIGH
1.2
AVERAGE
-2.7
PRESSURE (hpa)
LOW
1018.6
HIGH
1023.4
AVERAGE
1020.2
DEVICE